Time;durP1;ratioP1;P1;durP2;ratioP2;P2;SDS_P1;SDS_P2;PMS_P1;PMS_P2;Temp;Humidity;BMP_temperature;BMP_pressure;BME280_temperature;BME280_humidity;BME280_pressure;Samples;Min_cycle;Max_cycle;Signal;HPM_P1;HPM_P2
2023/10/14 00:00:27;;;;;;;7.78;3.08;;;;;;;-145.69;33.38;51794.88;5097649;28;20195;-83
2023/10/14 00:02:56;;;;;;;8.18;2.88;;;;;;;-145.69;33.88;51775.06;5097637;28;20257;-83
2023/10/14 00:05:23;;;;;;;6.45;2.65;;;;;;;-145.69;34.15;51788.94;5098345;28;20198;-81
2023/10/14 00:07:53;;;;;;;10.05;2.90;;;;;;;-145.69;33.51;51786.94;5100588;28;20292;-83
2023/10/14 00:10:22;;;;;;;11.70;2.80;;;;;;;-145.69;34.16;51790.91;5101516;28;20194;-83
2023/10/14 00:12:53;;;;;;;6.28;3.10;;;;;;;-145.69;34.25;51826.56;5098956;28;21404;-83
2023/10/14 00:15:19;;;;;;;7.97;2.75;;;;;;;-145.69;34.82;51794.88;5099464;28;20548;-84
2023/10/14 00:17:49;;;;;;;6.53;2.60;;;;;;;-145.69;34.23;51800.81;5097882;28;20245;-83
2023/10/14 00:20:16;;;;;;;7.72;2.60;;;;;;;-145.69;34.43;51822.59;5098221;28;20254;-83
2023/10/14 00:22:44;;;;;;;9.18;3.17;;;;;;;-145.69;35.00;51794.88;5098468;28;20221;-83
2023/10/14 00:25:19;;;;;;;6.93;2.60;;;;;;;-145.69;34.79;51802.78;5107793;28;20212;-83
2023/10/14 00:27:45;;;;;;;7.60;2.85;;;;;;;-145.69;35.80;51810.72;5097193;28;20280;-83
2023/10/14 00:30:14;;;;;;;6.63;3.08;;;;;;;-145.69;35.07;51810.72;5101761;28;20200;-83
2023/10/14 00:32:40;;;;;;;10.02;2.80;;;;;;;-145.69;35.70;51802.78;5103714;28;20261;-83
2023/10/14 00:35:09;;;;;;;7.82;3.00;;;;;;;-145.69;36.05;51832.50;5102714;28;20202;-83
2023/10/14 00:37:36;;;;;;;8.35;2.92;;;;;;;-145.69;35.33;51822.59;5104622;28;20293;-83
2023/10/14 00:40:10;;;;;;;8.98;3.08;;;;;;;-145.69;36.01;51808.72;5104039;28;20202;-83
2023/10/14 00:42:38;;;;;;;12.63;3.53;;;;;;;-145.69;36.39;51820.59;5100281;28;20229;-82
2023/10/14 00:45:09;;;;;;;15.60;3.55;;;;;;;-145.69;37.05;51798.81;5102632;28;20202;-82
2023/10/14 00:47:36;;;;;;;9.23;3.28;;;;;;;-145.69;37.07;51834.47;5102815;28;20198;-82
2023/10/14 00:50:22;;;;;;;8.50;3.55;;;;;;;-145.69;37.67;51800.81;5102378;28;20198;-83
2023/10/14 00:52:54;;;;;;;9.30;3.28;;;;;;;-145.69;37.47;51800.81;5102462;28;20530;-83
2023/10/14 00:55:24;;;;;;;11.55;3.90;;;;;;;-145.69;37.65;51822.59;5103581;28;20653;-83
2023/10/14 00:57:54;;;;;;;7.88;3.20;;;;;;;-145.69;38.25;51826.56;5098589;28;20265;-83
2023/10/14 01:00:22;;;;;;;5.30;3.20;;;;;;;-145.69;38.75;51818.63;5098954;28;20281;-82
2023/10/14 01:02:51;;;;;;;7.88;3.40;;;;;;;-145.69;38.78;51832.50;5098971;28;20226;-82
2023/10/14 01:05:20;;;;;;;8.50;3.70;;;;;;;-145.69;39.88;51798.81;5096831;28;20228;-83
2023/10/14 01:07:47;;;;;;;12.50;3.83;;;;;;;-145.69;39.65;51826.56;5096505;28;20195;-83
2023/10/14 01:10:24;;;;;;;9.02;3.55;;;;;;;-145.69;39.94;51814.66;5098605;28;20237;-83
2023/10/14 01:12:55;;;;;;;7.80;3.20;;;;;;;-145.69;39.80;51836.44;5100081;28;20231;-83
2023/10/14 01:15:21;;;;;;;7.95;3.88;;;;;;;-145.69;39.50;51846.34;5095942;28;20653;-83
2023/10/14 01:17:48;;;;;;;11.75;3.65;;;;;;;-145.69;39.42;51818.63;5102696;28;20248;-83
2023/10/14 01:20:26;;;;;;;8.00;3.60;;;;;;;-145.69;39.87;51846.34;5096406;28;20204;-83
2023/10/14 01:22:57;;;;;;;7.78;3.42;;;;;;;-145.69;40.08;51838.44;5097855;28;20225;-83
2023/10/14 01:25:29;;;;;;;8.68;4.10;;;;;;;-145.69;43.22;51844.38;5095581;28;20186;-83
2023/10/14 01:27:58;;;;;;;9.80;4.72;;;;;;;-145.69;53.54;51866.16;5098160;28;20277;-83
2023/10/14 01:30:26;;;;;;;8.70;4.68;;;;;;;-145.69;53.88;51862.19;5097670;28;20581;-83
2023/10/14 01:32:56;;;;;;;9.32;4.97;;;;;;;-145.69;54.36;51882.00;5088542;28;20217;-83
2023/10/14 01:35:26;;;;;;;12.35;5.53;;;;;;;-145.69;55.83;51882.00;5090172;28;20226;-83
2023/10/14 01:37:55;;;;;;;11.65;5.18;;;;;;;-145.69;54.91;51883.97;5087025;28;20208;-82
2023/10/14 01:40:29;;;;;;;11.93;5.20;;;;;;;-145.69;55.22;51897.84;5085404;28;20232;-82
2023/10/14 01:43:04;;;;;;;8.95;5.03;;;;;;;-145.69;55.17;51889.91;5103900;28;20218;-82
2023/10/14 01:45:31;;;;;;;8.45;4.90;;;;;;;-145.69;55.64;51907.72;5111772;28;20194;-82
2023/10/14 01:48:11;;;;;;;13.23;5.50;;;;;;;-145.69;55.95;51893.88;5112465;28;20209;-83
2023/10/14 01:50:38;;;;;;;11.75;4.75;;;;;;;-145.69;55.02;51880.00;5108324;28;20204;-82
2023/10/14 01:53:10;;;;;;;14.32;4.82;;;;;;;-145.69;55.14;51913.69;5106102;28;20198;-83
2023/10/14 01:55:37;;;;;;;6.93;4.22;;;;;;;-145.69;54.79;51921.59;5102202;28;20194;-83
2023/10/14 01:58:09;;;;;;;7.32;5.00;;;;;;;-145.69;54.85;51917.63;5103214;28;20717;-83
2023/10/14 02:00:38;;;;;;;8.93;4.63;;;;;;;-145.69;53.68;51909.72;5098839;28;20211;-83
2023/10/14 02:03:06;;;;;;;12.35;4.97;;;;;;;-145.69;53.76;51899.81;5100722;28;20241;-83
2023/10/14 02:05:39;;;;;;;10.43;4.95;;;;;;;-145.69;53.38;51907.72;5105991;28;20209;-83
2023/10/14 02:08:13;;;;;;;12.13;4.70;;;;;;;-145.69;53.09;51856.25;5101703;28;20202;-83
2023/10/14 02:10:50;;;;;;;10.85;5.13;;;;;;;-145.69;53.00;51889.91;5098958;28;20281;-83
2023/10/14 02:13:17;;;;;;;9.38;4.72;;;;;;;-145.69;52.51;51901.78;5099693;28;20213;-83
2023/10/14 02:15:47;;;;;;;9.38;5.07;;;;;;;-145.69;52.98;51905.75;5099348;28;20229;-82
2023/10/14 02:18:17;;;;;;;8.65;4.88;;;;;;;-145.69;52.71;51901.78;5099857;28;20225;-82
2023/10/14 02:20:57;;;;;;;7.85;4.50;;;;;;;-145.69;52.26;51893.88;5100940;28;20204;-82
2023/10/14 02:23:27;;;;;;;10.95;4.65;;;;;;;-145.69;52.24;51925.56;5101308;28;20252;-83
2023/10/14 02:25:57;;;;;;;11.38;5.28;;;;;;;-145.69;53.17;51901.78;5099678;28;20970;-83
2023/10/14 02:28:24;;;;;;;9.95;4.68;;;;;;;-145.69;52.46;51905.75;5098543;28;20560;-83
2023/10/14 02:30:52;;;;;;;9.60;4.80;;;;;;;-145.69;52.62;51885.94;5090388;28;20203;-83
2023/10/14 02:33:19;;;;;;;9.35;4.28;;;;;;;-145.69;52.78;51903.78;5077596;28;20210;-83
2023/10/14 02:35:46;;;;;;;9.02;4.43;;;;;;;-145.69;52.48;51907.72;5079064;28;20198;-83
2023/10/14 02:38:12;;;;;;;8.95;4.22;;;;;;;-145.69;52.42;51903.78;5081428;28;20619;-83
2023/10/14 02:40:40;;;;;;;10.88;4.85;;;;;;;-145.69;52.48;51891.88;5081812;28;20708;-83
2023/10/14 02:43:07;;;;;;;8.38;4.70;;;;;;;-145.69;51.91;51925.56;5097765;28;20232;-83
2023/10/14 02:45:39;;;;;;;9.15;4.95;;;;;;;-145.69;52.04;51885.94;5101420;28;20284;-83
2023/10/14 02:48:06;;;;;;;11.55;4.65;;;;;;;-145.69;52.23;51868.13;5101111;28;20205;-83
2023/10/14 02:50:32;;;;;;;10.63;4.50;;;;;;;-145.69;52.32;51880.00;5104045;28;20194;-83
2023/10/14 02:53:06;;;;;;;10.32;4.65;;;;;;;-145.69;52.28;51901.78;5102129;28;20202;-83
2023/10/14 02:55:50;;;;;;;9.35;4.40;;;;;;;-145.69;51.86;51897.84;5102666;28;20229;-83
2023/10/14 02:58:21;;;;;;;10.63;4.55;;;;;;;-145.69;51.35;51905.75;5105698;28;20263;-83
2023/10/14 03:00:50;;;;;;;12.07;5.15;;;;;;;-145.69;51.66;51905.75;5101242;28;20202;-83
2023/10/14 03:03:21;;;;;;;12.38;4.50;;;;;;;-145.69;51.60;51893.88;5100410;28;20237;-83
2023/10/14 03:05:52;;;;;;;10.30;4.95;;;;;;;-145.69;52.46;51876.06;5098900;28;20204;-83
2023/10/14 03:08:19;;;;;;;8.18;4.97;;;;;;;-145.69;52.67;51887.94;5100364;28;20259;-83
2023/10/14 03:10:46;;;;;;;16.23;4.88;;;;;;;-145.69;53.88;51895.84;5097493;28;20198;-83
2023/10/14 03:13:13;;;;;;;12.45;5.00;;;;;;;-145.69;53.95;51897.84;5098563;28;20194;-84
2023/10/14 03:15:44;;;;;;;10.43;5.00;;;;;;;-145.69;53.71;51887.94;5101206;28;20218;-84
2023/10/14 03:18:16;;;;;;;9.35;5.30;;;;;;;-145.69;55.57;51897.84;5099077;28;20268;-83
2023/10/14 03:20:48;;;;;;;9.52;4.97;;;;;;;-145.69;56.59;51917.63;5103223;28;20198;-84
2023/10/14 03:23:25;;;;;;;10.25;5.50;;;;;;;-145.69;57.25;51919.63;5102078;28;20229;-83
2023/10/14 03:25:56;;;;;;;8.77;5.40;;;;;;;-145.69;57.68;51919.63;5102937;28;20198;-83
2023/10/14 03:28:27;;;;;;;8.50;5.10;;;;;;;-145.69;57.70;51935.47;5102027;28;20561;-83
2023/10/14 03:30:56;;;;;;;12.57;6.10;;;;;;;-145.69;57.81;51909.72;5106662;28;20761;-83
2023/10/14 03:33:24;;;;;;;9.07;5.35;;;;;;;-145.69;57.38;51927.53;5083216;28;20312;-82
2023/10/14 03:35:57;;;;;;;13.07;5.50;;;;;;;-145.69;56.63;51915.66;5097794;28;20225;-82
2023/10/14 03:38:33;;;;;;;10.60;6.07;;;;;;;-145.69;56.25;51935.47;5100709;28;20206;-83
2023/10/14 03:41:04;;;;;;;10.57;5.25;;;;;;;-145.69;55.73;51925.56;5097360;28;20690;-83
2023/10/14 03:43:41;;;;;;;8.23;5.13;;;;;;;-145.69;55.42;51941.41;5084482;28;20313;-83
2023/10/14 03:46:12;;;;;;;12.35;5.30;;;;;;;-145.69;54.44;51923.56;5097318;28;20194;-83
2023/10/14 03:48:47;;;;;;;9.70;4.53;;;;;;;-145.69;54.46;51943.38;5096200;28;20610;-83
2023/10/14 03:51:17;;;;;;;13.75;5.28;;;;;;;-145.69;53.53;51895.84;5098113;28;20636;-85
2023/10/14 03:53:44;;;;;;;13.50;5.40;;;;;;;-145.69;52.64;51933.47;5096588;28;20209;-83
2023/10/14 03:56:11;;;;;;;22.02;5.50;;;;;;;-145.69;52.49;51929.50;5096315;28;20552;-82
2023/10/14 03:58:37;;;;;;;14.07;4.95;;;;;;;-145.69;51.91;51943.38;5098215;28;20683;-84
2023/10/14 04:01:04;;;;;;;13.85;5.22;;;;;;;-145.69;51.35;51891.88;5098413;28;20202;-83
2023/10/14 04:03:43;;;;;;;12.82;5.13;;;;;;;-145.69;51.25;51893.88;5095822;28;20229;-83
2023/10/14 04:06:14;;;;;;;11.38;5.15;;;;;;;-145.69;51.16;51925.56;5094603;28;20198;-84
2023/10/14 04:08:46;;;;;;;11.98;4.47;;;;;;;-145.69;51.57;51891.88;5095851;28;20213;-84
2023/10/14 04:11:14;;;;;;;9.65;4.30;;;;;;;-145.69;51.90;51909.72;5097394;28;20198;-83
2023/10/14 04:13:44;;;;;;;14.65;4.50;;;;;;;-145.69;51.59;51909.72;5097458;28;20256;-83
2023/10/14 04:16:12;;;;;;;18.38;4.72;;;;;;;-145.69;51.18;51917.63;5099304;28;20204;-82
2023/10/14 04:18:43;;;;;;;9.20;4.18;;;;;;;-145.69;50.41;51905.75;5094378;28;20261;-82
2023/10/14 04:21:19;;;;;;;8.43;4.55;;;;;;;-145.69;50.51;51870.13;5099289;28;20234;-83
2023/10/14 04:26:30;;;;;;;15.88;4.80;;;;;;;-145.69;50.52;51899.81;5094735;28;20283;-83
2023/10/14 04:28:58;;;;;;;9.60;3.95;;;;;;;-145.69;50.24;51905.75;5099572;28;20233;-82
2023/10/14 04:31:38;;;;;;;9.13;3.95;;;;;;;-145.69;50.17;51917.63;5097410;28;20538;-83
2023/10/14 04:34:07;;;;;;;12.98;3.97;;;;;;;-145.69;50.25;51891.88;5096599;28;20208;-83
2023/10/14 04:36:37;;;;;;;8.85;4.10;;;;;;;-145.69;50.31;51885.94;5096203;28;20198;-82
2023/10/14 04:39:14;;;;;;;10.32;4.38;;;;;;;-145.69;51.04;51889.91;5095805;28;20773;-83
2023/10/14 04:41:55;;;;;;;11.25;4.50;;;;;;;-145.69;50.62;51901.78;5097418;28;20232;-82
2023/10/14 04:44:23;;;;;;;16.60;4.25;;;;;;;-145.69;50.55;51889.91;5097150;28;20218;-83
2023/10/14 04:46:55;;;;;;;12.02;4.47;;;;;;;-145.69;51.30;51901.78;5097187;28;20206;-83
2023/10/14 04:49:42;;;;;;;9.02;3.80;;;;;;;-145.69;51.06;51909.72;5096522;28;20281;-83
2023/10/14 04:52:08;;;;;;;10.95;3.65;;;;;;;-145.69;51.09;51895.84;5096955;28;20198;-83
2023/10/14 04:54:35;;;;;;;17.27;4.20;;;;;;;-145.69;50.73;51913.69;5096353;28;20255;-83
2023/10/14 04:57:19;;;;;;;10.85;4.15;;;;;;;-145.69;51.71;51878.03;5098290;28;20270;-83
2023/10/14 04:59:47;;;;;;;11.60;3.78;;;;;;;-145.69;51.50;51935.47;5096933;28;20225;-83
2023/10/14 05:02:20;;;;;;;12.23;4.13;;;;;;;-145.69;51.05;51897.84;5096182;28;20198;-82
2023/10/14 05:04:49;;;;;;;9.93;4.35;;;;;;;-145.69;51.40;51885.94;5097148;28;20475;-82
2023/10/14 05:07:15;;;;;;;12.25;3.90;;;;;;;-145.69;51.86;51901.78;5099448;28;20209;-83
2023/10/14 05:09:49;;;;;;;8.43;3.78;;;;;;;-145.69;52.01;51939.41;5098306;28;20289;-83
2023/10/14 05:12:24;;;;;;;10.63;3.70;;;;;;;-145.69;51.43;51923.56;5099315;28;20197;-83
2023/10/14 05:14:51;;;;;;;11.30;4.05;;;;;;;-145.69;51.18;51895.84;5099969;28;20205;-83
2023/10/14 05:17:18;;;;;;;10.27;4.05;;;;;;;-145.69;51.53;51917.63;5098876;28;20222;-83
2023/10/14 05:19:47;;;;;;;7.72;3.65;;;;;;;-145.69;51.65;51935.47;5100256;28;20660;-83
2023/10/14 05:22:23;;;;;;;8.60;3.58;;;;;;;-145.69;52.08;51941.41;5104139;28;20194;-83
2023/10/14 05:24:54;;;;;;;10.45;3.58;;;;;;;-145.69;52.04;51923.56;5100928;28;20205;-83
2023/10/14 05:27:21;;;;;;;11.68;3.97;;;;;;;-145.69;51.94;51917.63;5101768;28;20255;-83
2023/10/14 05:29:50;;;;;;;8.10;3.55;;;;;;;-145.69;51.84;51925.56;5095338;28;20210;-83
2023/10/14 05:32:18;;;;;;;11.63;3.83;;;;;;;-145.69;51.55;51945.34;5098357;28;20198;-83
2023/10/14 05:34:45;;;;;;;13.77;3.80;;;;;;;-145.69;51.73;51905.75;5107432;28;20198;-82
2023/10/14 05:37:12;;;;;;;8.45;3.40;;;;;;;-145.69;51.81;51921.59;5107280;28;20233;-83
2023/10/14 05:39:41;;;;;;;11.88;4.10;;;;;;;-145.69;52.03;51937.44;5102890;28;20198;-83
2023/10/14 05:42:15;;;;;;;8.05;3.58;;;;;;;-145.69;51.58;51917.63;5105141;28;20631;-83
2023/10/14 05:44:46;;;;;;;8.77;4.03;;;;;;;-145.69;52.04;51919.63;5107170;28;20232;-83
2023/10/14 05:47:13;;;;;;;7.13;3.72;;;;;;;-145.69;52.33;51913.69;5102046;28;20248;-82
2023/10/14 05:49:40;;;;;;;7.97;3.35;;;;;;;-145.69;52.27;51947.34;5101888;28;20202;-83
2023/10/14 05:52:07;;;;;;;10.88;4.05;;;;;;;-145.69;52.46;51901.78;5102517;28;20456;-82
2023/10/14 05:54:34;;;;;;;7.38;3.33;;;;;;;-145.69;52.67;51915.66;5104887;28;20509;-83
2023/10/14 05:57:03;;;;;;;10.50;3.45;;;;;;;-145.69;52.34;51901.78;5104182;28;20239;-82
2023/10/14 05:59:29;;;;;;;8.60;3.03;;;;;;;-145.69;52.38;51919.63;5104536;28;20712;-83
2023/10/14 06:01:56;;;;;;;12.27;3.30;;;;;;;-145.69;52.68;51925.56;5103290;28;20202;-83
2023/10/14 06:04:22;;;;;;;11.98;3.78;;;;;;;-145.69;52.61;51941.41;5104235;28;20255;-82
2023/10/14 06:06:49;;;;;;;15.70;3.58;;;;;;;-145.69;52.73;51935.47;5102304;28;20202;-83
2023/10/14 06:09:17;;;;;;;12.32;4.55;;;;;;;-145.69;53.17;51937.44;5102793;28;20732;-83
2023/10/14 06:11:45;;;;;;;12.63;3.72;;;;;;;-145.69;52.53;51921.59;5102365;28;20672;-83
2023/10/14 06:14:13;;;;;;;9.30;3.50;;;;;;;-145.69;53.14;51965.16;5103034;28;20225;-82
2023/10/14 06:16:40;;;;;;;12.45;4.28;;;;;;;-145.69;53.83;51957.25;5101476;28;20597;-82
2023/10/14 06:19:08;;;;;;;8.68;3.65;;;;;;;-145.69;53.42;51935.47;5100766;28;20209;-83
2023/10/14 06:21:34;;;;;;;12.75;4.00;;;;;;;-145.69;53.73;51969.13;5100895;28;20233;-83
2023/10/14 06:24:04;;;;;;;14.60;4.18;;;;;;;-145.69;53.67;51927.53;5099660;28;20226;-83
2023/10/14 06:26:34;;;;;;;11.13;4.07;;;;;;;-145.69;53.73;51911.69;5099261;28;20201;-82
2023/10/14 06:29:00;;;;;;;12.88;3.85;;;;;;;-145.69;53.99;51955.25;5099922;28;20213;-82
2023/10/14 06:31:28;;;;;;;13.40;4.55;;;;;;;-145.69;53.81;51933.47;5100751;28;20198;-83
2023/10/14 06:33:55;;;;;;;11.93;3.67;;;;;;;-145.69;53.72;51925.56;5103005;28;20198;-82
2023/10/14 06:36:24;;;;;;;10.70;4.13;;;;;;;-145.69;53.62;51921.59;5101883;28;20202;-83
2023/10/14 06:38:51;;;;;;;16.77;4.45;;;;;;;-145.69;53.60;51913.69;5101478;28;20194;-83
2023/10/14 06:41:18;;;;;;;9.75;3.85;;;;;;;-145.69;53.31;51949.31;5101031;28;20289;-82
2023/10/14 06:43:47;;;;;;;15.95;4.68;;;;;;;-145.69;53.47;51925.56;5099504;28;20222;-83
2023/10/14 06:46:16;;;;;;;9.55;4.22;;;;;;;-145.69;52.19;51959.22;5101176;28;20289;-83
2023/10/14 06:48:45;;;;;;;15.30;3.70;;;;;;;-145.69;51.86;51967.13;5101624;28;20198;-83
2023/10/14 06:51:12;;;;;;;11.43;4.22;;;;;;;-145.69;51.57;51925.56;5102790;28;20190;-83
2023/10/14 06:53:39;;;;;;;8.80;3.65;;;;;;;-145.69;51.30;51941.41;5102438;28;20668;-83
2023/10/14 06:56:05;;;;;;;11.07;3.90;;;;;;;-145.69;50.10;51933.47;5100769;28;20285;-83
2023/10/14 06:58:33;;;;;;;13.45;3.83;;;;;;;-145.69;50.11;51941.41;5101201;28;20200;-83
2023/10/14 07:00:59;;;;;;;8.80;3.30;;;;;;;-145.69;49.22;51937.44;5102827;28;20418;-83
2023/10/14 07:03:28;;;;;;;11.10;3.40;;;;;;;-145.69;48.26;51921.59;5101572;28;20221;-84
2023/10/14 07:05:59;;;;;;;7.53;3.28;;;;;;;-145.69;47.91;51895.84;5100875;28;20205;-83
2023/10/14 07:08:27;;;;;;;7.43;3.00;;;;;;;-145.69;47.73;51905.75;5102178;28;20197;-83
2023/10/14 07:10:55;;;;;;;11.48;3.40;;;;;;;-145.69;47.49;51933.47;5100378;28;20229;-83
2023/10/14 07:13:23;;;;;;;10.55;3.15;;;;;;;-145.69;47.55;51949.31;5100680;28;20210;-83
2023/10/14 07:15:51;;;;;;;8.73;3.05;;;;;;;-145.69;47.69;51874.06;5096662;28;20202;-83
2023/10/14 07:18:22;;;;;;;9.13;2.58;;;;;;;-145.69;47.20;51905.75;5098399;28;20258;-83
2023/10/14 07:20:59;;;;;;;10.50;2.80;;;;;;;-145.69;47.63;51921.59;5095494;28;20557;-84
2023/10/14 07:23:26;;;;;;;7.78;3.00;;;;;;;-145.69;47.67;51913.69;5097584;28;20266;-83
2023/10/14 07:25:53;;;;;;;9.77;3.05;;;;;;;-145.69;47.81;51913.69;5097245;28;20194;-83
2023/10/14 07:28:20;;;;;;;4.95;2.83;;;;;;;-145.69;47.63;51913.69;5098672;28;20279;-83
2023/10/14 07:30:48;;;;;;;8.23;3.10;;;;;;;-145.69;48.68;51885.94;5096715;28;20275;-83
2023/10/14 07:33:15;;;;;;;8.23;3.28;;;;;;;-145.69;48.35;51905.75;5098301;28;20198;-83
2023/10/14 07:35:41;;;;;;;8.43;3.90;;;;;;;-145.69;48.34;51917.63;5097388;28;20615;-83
2023/10/14 07:38:10;;;;;;;10.20;3.10;;;;;;;-145.69;48.26;51913.69;5092500;28;20210;-83
2023/10/14 07:40:38;;;;;;;12.00;3.25;;;;;;;-145.69;48.90;51937.44;5099682;28;20198;-82
2023/10/14 07:43:07;;;;;;;8.82;3.25;;;;;;;-145.69;47.96;51893.88;5100803;28;20194;-83
2023/10/14 07:45:36;;;;;;;12.05;3.63;;;;;;;-145.69;47.84;51919.63;5099553;28;20194;-85
2023/10/14 07:48:08;;;;;;;8.77;3.03;;;;;;;-145.69;48.06;51893.88;5098213;28;20244;-84
2023/10/14 07:50:35;;;;;;;9.25;3.33;;;;;;;-145.69;48.06;51874.06;5098757;28;20219;-84
2023/10/14 07:53:07;;;;;;;7.57;2.95;;;;;;;-145.69;47.90;51907.72;5099849;28;20205;-83
2023/10/14 07:55:38;;;;;;;9.73;3.55;;;;;;;-145.69;47.65;51874.06;5100259;28;20229;-83
2023/10/14 07:58:08;;;;;;;7.68;3.63;;;;;;;-145.69;47.94;51917.63;5099388;28;20213;-83
2023/10/14 08:00:39;;;;;;;9.93;4.07;;;;;;;-145.69;47.93;51915.66;5102918;28;20285;-83
2023/10/14 08:03:07;;;;;;;5.43;3.00;;;;;;;-145.69;48.06;51931.50;5104811;28;20602;-82
2023/10/14 08:05:35;;;;;;;11.10;3.20;;;;;;;-145.69;47.77;51937.44;5103734;28;20202;-82
2023/10/14 08:08:06;;;;;;;6.78;3.00;;;;;;;-145.69;47.58;51927.53;5107233;28;20224;-82
2023/10/14 08:10:34;;;;;;;6.85;2.67;;;;;;;-145.69;47.45;51893.88;5106703;28;20648;-82
2023/10/14 08:13:04;;;;;;;7.72;2.88;;;;;;;-145.69;47.75;51917.63;5104617;28;20220;-82
2023/10/14 08:15:31;;;;;;;6.47;2.90;;;;;;;-145.69;47.12;51882.00;5108368;28;20194;-83
2023/10/14 08:18:00;;;;;;;6.85;2.65;;;;;;;-145.69;47.20;51874.06;5102904;28;20230;-83
2023/10/14 08:20:28;;;;;;;9.13;3.28;;;;;;;-145.69;46.62;51893.88;5101991;28;20631;-83
2023/10/14 08:22:55;;;;;;;8.82;3.35;;;;;;;-145.69;46.76;51921.59;5102465;28;20206;-82
2023/10/14 08:25:24;;;;;;;9.32;2.65;;;;;;;-145.69;46.94;51874.06;5102226;28;20222;-82
2023/10/14 08:27:51;;;;;;;6.88;3.40;;;;;;;-145.69;46.41;51870.13;5102293;28;20262;-82
2023/10/14 08:30:24;;;;;;;8.07;3.13;;;;;;;-145.69;46.33;51882.00;5101712;28;20206;-82
2023/10/14 08:32:53;;;;;;;7.32;2.60;;;;;;;-145.69;46.65;51882.00;5103880;28;20255;-82
2023/10/14 08:35:27;;;;;;;10.10;3.45;;;;;;;-145.69;46.69;51893.88;5104873;28;20198;-82
2023/10/14 08:37:54;;;;;;;9.38;3.30;;;;;;;-145.69;46.28;51893.88;5102276;28;20229;-83
2023/10/14 08:40:22;;;;;;;7.80;3.13;;;;;;;-145.69;46.13;51878.03;5104401;28;20198;-82
2023/10/14 08:42:51;;;;;;;9.52;2.97;;;;;;;-145.69;46.02;51882.00;5104854;28;20195;-83
2023/10/14 08:45:25;;;;;;;8.20;3.22;;;;;;;-145.69;45.90;51878.03;5104309;28;20228;-82
2023/10/14 08:47:54;;;;;;;9.98;3.60;;;;;;;-145.69;46.68;51870.13;5103890;28;20198;-82
2023/10/14 08:50:23;;;;;;;9.27;3.33;;;;;;;-145.69;46.51;51872.09;5103588;28;20560;-82
2023/10/14 08:52:51;;;;;;;8.40;3.17;;;;;;;-145.69;46.33;51897.84;5101910;28;20716;-82
2023/10/14 08:55:20;;;;;;;9.63;2.80;;;;;;;-145.69;46.04;51889.91;5102700;28;20710;-82
2023/10/14 08:57:47;;;;;;;10.45;3.33;;;;;;;-145.69;46.07;51870.13;5100413;28;20201;-83
2023/10/14 09:00:19;;;;;;;13.48;3.55;;;;;;;-145.69;46.00;51897.84;5102949;28;20195;-83
2023/10/14 09:02:49;;;;;;;12.13;2.83;;;;;;;-145.69;45.03;51858.22;5103091;28;20201;-82
2023/10/14 09:05:18;;;;;;;6.40;2.22;;;;;;;-145.69;45.15;51872.09;5103889;28;20225;-82
2023/10/14 09:07:46;;;;;;;5.00;2.20;;;;;;;-145.69;44.47;51882.00;5102506;28;20246;-82
2023/10/14 09:10:15;;;;;;;7.38;2.80;;;;;;;-145.69;44.35;51883.97;5101023;28;20265;-82
2023/10/14 09:12:54;;;;;;;6.68;2.05;;;;;;;-145.69;44.17;51870.13;5102518;28;20205;-83
2023/10/14 09:15:23;;;;;;;6.68;2.25;;;;;;;-145.69;44.68;51874.06;5103011;28;20186;-83
2023/10/14 09:17:55;;;;;;;6.15;2.03;;;;;;;-145.69;44.05;51866.16;5109613;28;20257;-83
2023/10/14 09:20:34;;;;;;;6.40;2.33;;;;;;;-145.69;43.69;51876.06;5108988;28;20202;-83
2023/10/14 09:23:17;;;;;;;7.40;2.22;;;;;;;-145.69;43.52;51883.97;5108145;28;20314;-83
2023/10/14 09:25:45;;;;;;;7.05;2.35;;;;;;;-145.69;44.71;51907.72;5109535;28;20222;-83
2023/10/14 09:28:12;;;;;;;3.90;1.65;;;;;;;-145.69;44.73;51893.88;5106537;28;20212;-83
2023/10/14 09:30:44;;;;;;;5.18;2.13;;;;;;;-145.69;45.34;51905.75;5099967;28;20197;-83
2023/10/14 09:33:15;;;;;;;9.50;2.45;;;;;;;-145.69;46.47;51893.88;5101211;28;20205;-83
2023/10/14 09:35:44;;;;;;;5.03;2.00;;;;;;;-145.69;47.48;51905.75;5099246;28;20673;-83
2023/10/14 09:38:14;;;;;;;6.22;1.90;;;;;;;-145.69;49.38;51921.59;5102018;28;20210;-83
2023/10/14 09:40:42;;;;;;;4.70;2.22;;;;;;;-145.69;50.85;51887.94;5099502;28;20267;-82
2023/10/14 09:43:09;;;;;;;6.13;2.10;;;;;;;-145.69;52.46;51925.56;5099464;28;20236;-82
2023/10/14 09:45:38;;;;;;;6.60;1.63;;;;;;;-145.69;53.02;51907.72;5097430;28;20261;-82
2023/10/14 09:48:08;;;;;;;3.00;1.30;;;;;;;-145.69;52.79;51911.69;5098324;28;20297;-82
2023/10/14 09:50:37;;;;;;;1.58;1.15;;;;;;;-145.69;52.11;51901.78;5099789;28;20185;-82
2023/10/14 09:55:50;;;;;;;1.92;1.27;;;;;;;-145.69;51.65;51893.88;5099586;28;20198;-82
2023/10/14 09:58:18;;;;;;;2.72;1.45;;;;;;;-145.69;51.42;51913.69;5098895;28;20206;-83
2023/10/14 10:00:47;;;;;;;5.95;1.98;;;;;;;-145.69;52.02;51897.84;5098782;28;20559;-82
2023/10/14 10:03:14;;;;;;;5.07;1.42;;;;;;;-145.69;51.98;51895.84;5098391;28;20243;-82
2023/10/14 10:05:58;;;;;;;4.32;1.48;;;;;;;-145.69;52.06;51893.88;5096543;28;20700;-82
2023/10/14 10:08:52;;;;;;;3.03;1.73;;;;;;;-145.69;52.83;51941.41;5096953;28;20187;-83
2023/10/14 10:11:24;;;;;;;9.10;3.72;;;;;;;-145.69;54.02;51933.47;5095360;28;20202;-82
2023/10/14 10:13:54;;;;;;;8.52;3.00;;;;;;;-145.69;53.87;51931.50;5102623;28;20221;-82
2023/10/14 10:16:21;;;;;;;5.55;2.90;;;;;;;-145.69;54.31;51909.72;5104436;28;20380;-82
2023/10/14 10:18:56;;;;;;;6.63;2.20;;;;;;;-145.69;53.66;51917.63;5105770;28;20195;-82
2023/10/14 10:21:26;;;;;;;7.50;2.90;;;;;;;-145.69;54.19;51933.47;5104029;28;20255;-82
2023/10/14 10:23:56;;;;;;;4.53;2.10;;;;;;;-145.69;54.01;51897.84;5103809;28;20210;-82
2023/10/14 10:26:24;;;;;;;5.38;1.98;;;;;;;-145.69;53.58;51941.41;5105254;28;20248;-82
2023/10/14 10:28:59;;;;;;;5.15;2.00;;;;;;;-145.69;54.15;51931.50;5092262;28;20205;-82
2023/10/14 10:31:25;;;;;;;4.78;2.00;;;;;;;-145.69;54.20;51935.47;5101133;28;20606;-82
2023/10/14 10:34:02;;;;;;;4.22;2.08;;;;;;;-145.69;54.02;51880.00;5108789;28;20209;-82
2023/10/14 10:36:31;;;;;;;4.18;2.15;;;;;;;-145.69;54.27;51909.72;5100885;28;20204;-82
2023/10/14 10:39:15;;;;;;;5.82;2.03;;;;;;;-145.69;54.33;51905.75;5103189;28;20653;-82
2023/10/14 10:41:42;;;;;;;5.63;2.03;;;;;;;-145.69;53.98;51891.88;5100632;28;20194;-82
2023/10/14 10:44:11;;;;;;;5.40;1.67;;;;;;;-145.69;54.36;51897.84;5100988;28;20597;-82
2023/10/14 10:46:39;;;;;;;2.97;1.20;;;;;;;-145.69;54.44;51874.06;5099249;28;20198;-82
2023/10/14 10:49:10;;;;;;;2.67;1.40;;;;;;;-145.69;55.27;51915.66;5100395;28;20198;-83
2023/10/14 10:51:43;;;;;;;2.35;1.38;;;;;;;-145.69;54.38;51933.47;5097299;28;20225;-82
2023/10/14 10:54:12;;;;;;;3.10;1.27;;;;;;;-145.69;54.33;51949.31;5098030;28;20653;-82
2023/10/14 10:56:41;;;;;;;1.83;1.35;;;;;;;-145.69;55.41;51907.72;5101861;28;20198;-82
2023/10/14 10:59:07;;;;;;;3.00;1.38;;;;;;;-145.69;54.89;51915.66;5101261;28;20194;-83
2023/10/14 11:01:34;;;;;;;2.65;1.27;;;;;;;-145.69;54.49;51937.44;5101787;28;20201;-83
2023/10/14 11:04:03;;;;;;;2.00;1.27;;;;;;;-145.69;54.46;51915.66;5099639;28;20209;-83
2023/10/14 11:06:31;;;;;;;3.92;1.35;;;;;;;-145.69;54.82;51941.41;5098116;28;20201;-82
2023/10/14 11:09:01;;;;;;;2.70;1.02;;;;;;;-145.69;55.10;51911.69;5096934;28;20723;-82
2023/10/14 11:11:31;;;;;;;3.92;0.95;;;;;;;-145.69;54.85;51937.44;5095951;28;20198;-83
2023/10/14 11:13:57;;;;;;;2.55;1.42;;;;;;;-145.69;55.14;51921.59;5095777;28;20195;-82
2023/10/14 11:16:27;;;;;;;1.75;0.90;;;;;;;-145.69;57.83;51889.91;5096850;28;20194;-82
2023/10/14 11:18:54;;;;;;;3.80;1.13;;;;;;;-145.69;58.32;51955.25;5097760;28;20200;-82
2023/10/14 11:21:22;;;;;;;2.47;1.20;;;;;;;-145.69;60.46;51939.41;5097308;28;20226;-82
2023/10/14 11:23:52;;;;;;;4.05;1.10;;;;;;;-145.69;61.56;51961.19;5095491;28;20205;-83
2023/10/14 11:26:23;;;;;;;3.25;0.80;;;;;;;-145.69;65.87;51965.16;5094938;28;20320;-81
2023/10/14 11:28:50;;;;;;;1.27;0.60;;;;;;;-145.69;67.72;51981.00;5094870;28;20734;-82
2023/10/14 11:31:24;;;;;;;0.50;0.40;;;;;;;-145.69;68.56;51988.91;5094492;28;20202;-80